Time,TemperatureF,DewpointF,PressureIn,WindDirection,WindDirectionDegrees,WindSpeedMPH,WindSpeedGustMPH,Humidity,HourlyPrecipIn,Conditions,Clouds,dailyrainin,SoftwareType,DateUTC
2013-04-06 00:12:00,30.6,22.7,30.08,South,180,0.0,-999.0,72,-99.99,,,0.00,Acu-Link.com,2013-04-06 04:12:00,
2013-04-06 00:27:00,30.6,23.0,30.07,South,180,0.0,-999.0,73,-99.99,,,0.00,Acu-Link.com,2013-04-06 04:27:00,
2013-04-06 00:43:00,30.4,23.1,30.07,South,180,0.0,-999.0,74,-99.99,,,0.00,Acu-Link.com,2013-04-06 04:43:00,
2013-04-06 01:29:00,28.8,22.5,30.07,SE,135,0.0,-999.0,77,-99.99,,,0.00,Acu-Link.com,2013-04-06 05:29:00,
2013-04-06 01:44:00,28.0,22.3,30.08,SW,225,0.0,-999.0,79,-99.99,,,0.00,Acu-Link.com,2013-04-06 05:44:00,
2013-04-06 01:59:00,28.2,22.8,30.08,SSE,157,1.7,-999.0,80,-99.99,,,0.00,Acu-Link.com,2013-04-06 05:59:00,
2013-04-06 02:14:00,29.3,23.3,30.09,SE,135,1.7,-999.0,78,-99.99,,,0.00,Acu-Link.com,2013-04-06 06:14:00,
2013-04-06 02:29:00,28.9,22.9,30.08,SSE,157,3.2,-999.0,78,-99.99,,,0.00,Acu-Link.com,2013-04-06 06:29:00,
2013-04-06 03:00:00,28.8,23.1,30.09,South,180,2.2,-999.0,79,-99.99,,,0.00,Acu-Link.com,2013-04-06 07:00:00,
2013-04-06 03:15:00,29.5,23.2,30.09,SW,225,0.0,-999.0,77,-99.99,,,0.00,Acu-Link.com,2013-04-06 07:15:00,
2013-04-06 03:31:00,29.7,23.1,30.10,SSE,157,1.1,-999.0,76,-99.99,,,0.00,Acu-Link.com,2013-04-06 07:31:00,
2013-04-06 03:46:00,30.2,23.2,30.09,ESE,112,2.7,-999.0,75,-99.99,,,0.00,Acu-Link.com,2013-04-06 07:46:00,
2013-04-06 04:01:00,30.6,23.0,30.09,South,180,2.7,-999.0,73,-99.99,,,0.00,Acu-Link.com,2013-04-06 08:01:00,
2013-04-06 05:02:00,30.7,22.1,30.08,SE,135,4.2,-999.0,70,-99.99,,,0.00,Acu-Link.com,2013-04-06 09:02:00,
2013-04-06 05:32:00,30.4,21.5,30.08,South,180,3.2,-999.0,69,-99.99,,,0.00,Acu-Link.com,2013-04-06 09:32:00,
2013-04-06 05:47:00,30.4,21.5,30.09,ESE,112,0.0,-999.0,69,-99.99,,,0.00,Acu-Link.com,2013-04-06 09:47:00,
2013-04-06 06:02:00,30.6,21.3,30.09,South,180,1.7,-999.0,68,-99.99,,,0.00,Acu-Link.com,2013-04-06 10:02:00,
2013-04-06 06:17:00,30.7,20.7,30.09,North,0,2.7,-999.0,66,-99.99,,,0.00,Acu-Link.com,2013-04-06 10:17:00,
2013-04-06 06:32:00,30.9,19.8,30.09,SSE,157,4.2,-999.0,63,-99.99,,,0.00,Acu-Link.com,2013-04-06 10:32:00,
2013-04-06 06:48:00,31.3,19.4,30.10,South,180,3.7,-999.0,61,-99.99,,,0.00,Acu-Link.com,2013-04-06 10:48:00,
2013-04-06 07:03:00,31.3,19.4,30.10,South,180,3.2,-999.0,61,-99.99,,,0.00,Acu-Link.com,2013-04-06 11:03:00,
2013-04-06 07:18:00,31.5,19.2,30.10,SSE,157,4.7,-999.0,60,-99.99,,,0.00,Acu-Link.com,2013-04-06 11:18:00,
2013-04-06 07:49:00,32.0,19.7,30.10,SSE,157,2.7,-999.0,60,-99.99,,,0.00,Acu-Link.com,2013-04-06 11:49:00,
2013-04-06 08:04:00,32.4,20.1,30.10,SW,225,6.8,-999.0,60,-99.99,,,0.00,Acu-Link.com,2013-04-06 12:04:00,
2013-04-06 08:19:00,32.4,19.3,30.10,SSE,157,6.3,-999.0,58,-99.99,,,0.00,Acu-Link.com,2013-04-06 12:19:00,
2013-04-06 08:34:00,33.1,19.1,30.09,ESE,112,5.8,-999.0,56,-99.99,,,0.00,Acu-Link.com,2013-04-06 12:34:00,
2013-04-06 09:04:00,33.3,15.8,30.10,South,180,4.2,-999.0,48,-99.99,,,0.00,Acu-Link.com,2013-04-06 13:04:00,
2013-04-06 09:19:00,33.6,16.0,30.10,SE,135,5.8,-999.0,48,-99.99,,,0.00,Acu-Link.com,2013-04-06 13:19:00,
2013-04-06 09:34:00,33.8,16.2,30.09,SSE,157,4.7,-999.0,48,-99.99,,,0.00,Acu-Link.com,2013-04-06 13:34:00,
2013-04-06 09:50:00,33.6,16.5,30.08,South,180,5.8,-999.0,49,-99.99,,,0.00,Acu-Link.com,2013-04-06 13:50:00,
2013-04-06 10:05:00,33.8,17.2,30.08,WSW,247,3.7,-999.0,50,-99.99,,,0.00,Acu-Link.com,2013-04-06 14:05:00,
2013-04-06 10:20:00,34.3,17.6,30.08,South,180,5.8,-999.0,50,-99.99,,,0.00,Acu-Link.com,2013-04-06 14:20:00,
2013-04-06 10:35:00,34.5,18.7,30.07,SSW,202,5.8,-999.0,52,-99.99,,,0.00,Acu-Link.com,2013-04-06 14:35:00,
2013-04-06 10:50:00,35.2,19.4,30.07,ESE,112,6.3,-999.0,52,-99.99,,,0.00,Acu-Link.com,2013-04-06 14:50:00,
2013-04-06 11:05:00,36.1,20.6,30.07,South,180,4.2,-999.0,53,-99.99,,,0.00,Acu-Link.com,2013-04-06 15:05:00,
2013-04-06 11:20:00,37.2,21.7,30.06,SSE,157,9.4,-999.0,53,-99.99,,,0.00,Acu-Link.com,2013-04-06 15:20:00,
2013-04-06 11:35:00,37.8,22.2,30.06,ENE,67,8.3,-999.0,53,-99.99,,,0.00,Acu-Link.com,2013-04-06 15:35:00,
2013-04-06 11:51:00,38.1,22.5,30.05,South,180,8.3,-999.0,53,-99.99,,,0.00,Acu-Link.com,2013-04-06 15:51:00,
2013-04-06 12:06:00,39.4,23.3,30.05,ESE,112,2.7,-999.0,52,-99.99,,,0.00,Acu-Link.com,2013-04-06 16:06:00,
2013-04-06 12:21:00,40.6,22.5,30.04,SSW,202,5.8,-999.0,48,-99.99,,,0.00,Acu-Link.com,2013-04-06 16:21:00,
2013-04-06 13:07:00,41.5,23.8,30.02,South,180,5.3,-999.0,49,-99.99,,,0.00,Acu-Link.com,2013-04-06 17:07:00,
2013-04-06 13:22:00,42.3,23.5,30.01,SSW,202,6.8,-999.0,47,-99.99,,,0.00,Acu-Link.com,2013-04-06 17:22:00,
2013-04-06 13:37:00,42.6,21.7,29.99,South,180,8.9,-999.0,43,-99.99,,,0.00,Acu-Link.com,2013-04-06 17:37:00,
2013-04-06 13:52:00,43.0,20.9,29.98,South,180,10.4,-999.0,41,-99.99,,,0.00,Acu-Link.com,2013-04-06 17:52:00,
2013-04-06 14:08:00,45.0,21.6,29.97,SSE,157,14.0,-999.0,39,-99.99,,,0.00,Acu-Link.com,2013-04-06 18:08:00,
2013-04-06 14:23:00,44.8,21.4,29.95,ESE,112,6.8,-999.0,39,-99.99,,,0.00,Acu-Link.com,2013-04-06 18:23:00,
2013-04-06 14:38:00,45.0,21.6,29.94,ESE,112,7.3,-999.0,39,-99.99,,,0.00,Acu-Link.com,2013-04-06 18:38:00,
2013-04-06 14:53:00,45.9,22.4,29.93,South,180,6.3,-999.0,39,-99.99,,,0.00,Acu-Link.com,2013-04-06 18:53:00,
2013-04-06 15:08:00,46.4,22.2,29.92,SE,135,6.8,-999.0,38,-99.99,,,0.00,Acu-Link.com,2013-04-06 19:08:00,
2013-04-06 15:23:00,48.7,24.2,29.90,ESE,112,6.3,-999.0,38,-99.99,,,0.00,Acu-Link.com,2013-04-06 19:23:00,
2013-04-06 15:39:00,48.9,23.1,29.89,South,180,7.8,-999.0,36,-99.99,,,0.00,Acu-Link.com,2013-04-06 19:39:00,
2013-04-06 15:54:00,49.5,24.3,29.88,South,180,6.8,-999.0,37,-99.99,,,0.00,Acu-Link.com,2013-04-06 19:54:00,
2013-04-06 16:09:00,49.6,23.8,29.86,South,180,5.8,-999.0,36,-99.99,,,0.00,Acu-Link.com,2013-04-06 20:09:00,
2013-04-06 16:24:00,50.4,24.5,29.85,ESE,112,9.4,-999.0,36,-99.99,,,0.00,Acu-Link.com,2013-04-06 20:24:00,
2013-04-06 16:40:00,48.7,23.0,29.83,South,180,5.8,-999.0,36,-99.99,,,0.00,Acu-Link.com,2013-04-06 20:40:00,
2013-04-06 16:55:00,48.6,23.5,29.82,South,180,5.8,-999.0,37,-99.99,,,0.00,Acu-Link.com,2013-04-06 20:55:00,
2013-04-06 17:10:00,48.2,23.2,29.81,South,180,3.7,-999.0,37,-99.99,,,0.00,Acu-Link.com,2013-04-06 21:10:00,
2013-04-06 17:25:00,48.2,23.2,29.80,ESE,112,7.8,-999.0,37,-99.99,,,0.00,Acu-Link.com,2013-04-06 21:25:00,
2013-04-06 17:40:00,48.2,23.2,29.79,SSE,157,9.9,-999.0,37,-99.99,,,0.05,Acu-Link.com,2013-04-06 21:40:00,
2013-04-06 18:42:00,48.0,23.0,29.75,South,180,8.9,-999.0,37,-99.99,,,0.08,Acu-Link.com,2013-04-06 22:42:00,
2013-04-06 18:57:00,48.9,23.1,29.75,SW,225,6.3,-999.0,36,-99.99,,,0.08,Acu-Link.com,2013-04-06 22:57:00,
2013-04-06 19:28:00,48.7,23.0,29.74,South,180,8.3,-999.0,36,-99.99,,,0.08,Acu-Link.com,2013-04-06 23:28:00,
2013-04-06 19:43:00,48.6,22.9,29.74,SW,225,14.0,-999.0,36,-99.99,,,0.08,Acu-Link.com,2013-04-06 23:43:00,
2013-04-06 19:58:00,48.2,23.2,29.73,SE,135,9.9,-999.0,37,-99.99,,,0.08,Acu-Link.com,2013-04-06 23:58:00,
2013-04-06 20:13:00,48.0,23.6,29.73,WSW,247,4.2,-999.0,38,-99.99,,,0.08,Acu-Link.com,2013-04-07 00:13:00,
2013-04-06 20:29:00,47.8,24.1,29.72,South,180,8.9,-999.0,39,-99.99,,,0.08,Acu-Link.com,2013-04-07 00:29:00,
2013-04-06 20:59:00,47.7,25.2,29.71,SSW,202,9.9,-999.0,41,-99.99,,,0.08,Acu-Link.com,2013-04-07 00:59:00,
2013-04-06 21:14:00,47.5,25.0,29.70,SSW,202,4.7,-999.0,41,-99.99,,,0.08,Acu-Link.com,2013-04-07 01:14:00,
2013-04-06 21:29:00,47.7,25.7,29.69,SSE,157,9.9,-999.0,42,-99.99,,,0.08,Acu-Link.com,2013-04-07 01:29:00,
2013-04-06 21:44:00,47.5,25.6,29.69,South,180,6.8,-999.0,42,-99.99,,,0.08,Acu-Link.com,2013-04-07 01:44:00,
2013-04-06 21:59:00,47.1,25.2,29.69,SSE,157,4.7,-999.0,42,-99.99,,,0.08,Acu-Link.com,2013-04-07 01:59:00,
2013-04-06 22:14:00,47.1,25.2,29.68,SSE,157,4.7,-999.0,42,-99.99,,,0.08,Acu-Link.com,2013-04-07 02:14:00,
2013-04-06 22:45:00,47.3,25.4,29.66,SSW,202,7.3,-999.0,42,-99.99,,,0.08,Acu-Link.com,2013-04-07 02:45:00,
2013-04-06 23:00:00,47.7,25.7,29.64,ESE,112,8.9,-999.0,42,-99.99,,,0.08,Acu-Link.com,2013-04-07 03:00:00,
2013-04-06 23:15:00,47.8,25.8,29.63,West,270,7.8,-999.0,42,-99.99,,,0.08,Acu-Link.com,2013-04-07 03:15:00,
2013-04-06 23:30:00,47.8,25.8,29.62,WSW,247,5.3,-999.0,42,-99.99,,,0.08,Acu-Link.com,2013-04-07 03:30:00,
2013-04-06 23:45:00,48.6,26.0,29.61,ESE,112,10.9,-999.0,41,-99.99,,,0.08,Acu-Link.com,2013-04-07 03:45:00,